Time;durP1;ratioP1;P1;durP2;ratioP2;P2;SDS_P1;SDS_P2;PMS_P1;PMS_P2;Temp;Humidity;BMP_temperature;BMP_pressure;BME280_temperature;BME280_humidity;BME280_pressure;Samples;Min_cycle;Max_cycle;Signal;HPM_P1;HPM_P2
2023/04/06 09:04:26;;;;;;;9.57;8.40;;;;;;;;;;4874476;29;20403;-79
2023/04/06 09:06:52;;;;;;;10.10;7.80;;;;;;;;;;4898091;29;20037;-81
2023/04/06 11:31:14;;;;;;;12.25;10.93;;;;;;;;;;5594244;23;20063;-86
2023/04/06 11:33:39;;;;;;;11.98;9.20;;;;;;;;;;4918321;29;20048;-86
2023/04/06 11:36:06;;;;;;;15.60;11.05;;;;;;;;;;4918235;29;20024;-85
2023/04/06 11:38:32;;;;;;;14.93;12.43;;;;;;;;;;4918117;29;20044;-87
2023/04/06 11:40:57;;;;;;;12.63;11.13;;;;;;;;;;4918288;29;20036;-87
2023/04/06 11:43:30;;;;;;;14.95;11.05;;;;;;;;;;4918150;29;20060;-86
2023/04/06 11:46:03;;;;;;;13.43;11.70;;;;;;;;;;4917604;29;20371;-85
2023/04/06 15:39:46;;;;;;;9.82;7.80;;;;;;;;;;4917317;29;20127;-80
2023/04/06 15:42:11;;;;;;;11.32;7.85;;;;;;;;;;4918285;29;20080;-82
2023/04/06 15:44:37;;;;;;;9.50;7.80;;;;;;;;;;4912231;29;20024;-83
2023/04/06 15:47:02;;;;;;;8.80;7.90;;;;;;;;;;4899287;29;20024;-82
2023/04/06 15:49:28;;;;;;;10.27;8.05;;;;;;;;;;4899300;29;20033;-82
2023/04/06 15:51:53;;;;;;;8.63;7.18;;;;;;;;;;4899089;29;20120;-83
2023/04/06 15:54:20;;;;;;;8.35;7.07;;;;;;;;;;4899273;29;20036;-82
2023/04/06 15:56:45;;;;;;;9.93;7.55;;;;;;;;;;4899204;29;20031;-82
2023/04/06 15:59:11;;;;;;;9.40;7.78;;;;;;;;;;4899345;29;20032;-82
2023/04/06 16:01:36;;;;;;;9.70;7.50;;;;;;;;;;4899099;29;20044;-81
2023/04/06 16:04:06;;;;;;;8.05;7.03;;;;;;;;;;4898835;29;20108;-80
2023/04/06 16:06:32;;;;;;;;;;;;;;;;;;4899470;29;20033;-81
2023/04/06 16:08:57;;;;;;;10.07;7.43;;;;;;;;;;4899119;29;20475;-81
2023/04/06 16:11:22;;;;;;;9.27;7.20;;;;;;;;;;4898863;29;20032;-80
2023/04/06 16:13:48;;;;;;;9.05;7.20;;;;;;;;;;4898762;29;20048;-81
2023/04/06 16:16:13;;;;;;;9.43;7.80;;;;;;;;;;4898820;29;20029;-80
2023/04/06 16:18:39;;;;;;;10.32;7.88;;;;;;;;;;4898707;29;20036;-81
2023/04/06 16:21:04;;;;;;;13.13;7.50;;;;;;;;;;4898760;29;20059;-80
2023/04/06 16:23:30;;;;;;;8.55;7.05;;;;;;;;;;4898516;29;20027;-82
2023/04/06 16:25:56;;;;;;;9.57;7.95;;;;;;;;;;4898761;29;20056;-80
2023/04/06 16:28:23;;;;;;;9.70;8.23;;;;;;;;;;4898602;29;20029;-81
2023/04/06 16:30:49;;;;;;;9.63;6.82;;;;;;;;;;4898506;29;20021;-81
2023/04/06 16:33:17;;;;;;;9.50;7.65;;;;;;;;;;4898662;29;20037;-81
2023/04/06 16:35:46;;;;;;;11.68;8.15;;;;;;;;;;4898255;29;20016;-81
2023/04/06 16:38:13;;;;;;;9.55;7.72;;;;;;;;;;4898413;29;20035;-81
2023/04/06 16:40:38;;;;;;;10.52;8.15;;;;;;;;;;4898368;29;20471;-82
2023/04/06 16:43:04;;;;;;;9.60;7.68;;;;;;;;;;4898185;29;20028;-82
2023/04/06 16:45:29;;;;;;;9.88;7.78;;;;;;;;;;4898477;29;20032;-82
2023/04/06 16:47:55;;;;;;;10.13;7.85;;;;;;;;;;4898408;29;20032;-82
2023/04/06 16:50:20;;;;;;;9.98;8.27;;;;;;;;;;4898150;29;20185;-82
2023/04/06 16:52:46;;;;;;;10.98;7.53;;;;;;;;;;4898507;29;20029;-81
2023/04/06 16:55:11;;;;;;;8.55;7.57;;;;;;;;;;4898344;29;20033;-84
2023/04/06 16:57:37;;;;;;;8.93;7.25;;;;;;;;;;4898539;29;20405;-82
2023/04/06 17:00:04;;;;;;;9.80;7.38;;;;;;;;;;4898232;29;20025;-83
2023/04/06 17:02:31;;;;;;;8.57;7.60;;;;;;;;;;4881419;29;20043;-82
2023/04/06 17:04:56;;;;;;;10.43;7.47;;;;;;;;;;4898298;29;20087;-81
2023/04/06 17:07:25;;;;;;;7.95;6.95;;;;;;;;;;4881317;29;20483;-82
2023/04/06 17:09:50;;;;;;;8.57;7.00;;;;;;;;;;4898317;29;20025;-79
2023/04/06 17:12:16;;;;;;;10.20;7.38;;;;;;;;;;4898432;29;20487;-79
2023/04/06 17:14:42;;;;;;;8.88;7.80;;;;;;;;;;4898346;29;20028;-80
2023/04/06 17:17:07;;;;;;;10.77;7.50;;;;;;;;;;4897959;29;20044;-80
2023/04/06 17:19:33;;;;;;;12.38;7.85;;;;;;;;;;4899057;29;20132;-82
2023/04/06 17:21:58;;;;;;;8.43;7.15;;;;;;;;;;4881285;29;20065;-80
2023/04/06 17:24:24;;;;;;;10.30;7.20;;;;;;;;;;4897904;29;20375;-80
2023/04/06 17:26:49;;;;;;;8.75;7.38;;;;;;;;;;4898486;29;20025;-80
2023/04/06 17:29:15;;;;;;;11.48;9.30;;;;;;;;;;4898050;29;20032;-83
2023/04/06 17:31:43;;;;;;;13.32;9.85;;;;;;;;;;4898196;29;20379;-84
2023/04/06 17:34:09;;;;;;;11.57;8.13;;;;;;;;;;4897900;29;20020;-82
2023/04/06 17:36:35;;;;;;;12.10;8.52;;;;;;;;;;4897957;29;20112;-82
2023/04/06 17:39:00;;;;;;;11.90;9.68;;;;;;;;;;4897762;29;20074;-81
2023/04/06 17:41:27;;;;;;;9.85;8.13;;;;;;;;;;4897969;29;20058;-82
2023/04/06 17:43:52;;;;;;;10.02;8.30;;;;;;;;;;4880841;29;20554;-83
2023/04/06 17:46:19;;;;;;;10.63;8.38;;;;;;;;;;4898157;29;20059;-82
2023/04/06 17:48:45;;;;;;;13.35;9.80;;;;;;;;;;4898066;29;20065;-82
2023/04/06 17:51:13;;;;;;;10.70;8.82;;;;;;;;;;4898037;29;20029;-80
2023/04/06 17:53:38;;;;;;;9.90;8.40;;;;;;;;;;4898267;29;20031;-80
2023/04/06 17:56:04;;;;;;;10.18;8.63;;;;;;;;;;4901528;29;20103;-81
2023/04/06 17:58:30;;;;;;;11.23;8.98;;;;;;;;;;4901402;29;20450;-80
2023/04/06 18:00:55;;;;;;;15.90;10.05;;;;;;;;;;4901535;29;20383;-81
2023/04/06 18:03:21;;;;;;;14.20;11.38;;;;;;;;;;4901132;29;20079;-83
2023/04/06 18:05:46;;;;;;;13.05;11.02;;;;;;;;;;4901124;29;20387;-82
2023/04/06 18:08:13;;;;;;;16.27;11.63;;;;;;;;;;4900862;29;20535;-82
2023/04/06 18:10:39;;;;;;;13.77;10.75;;;;;;;;;;4900875;29;20035;-82
2023/04/06 18:13:05;;;;;;;16.27;12.52;;;;;;;;;;4900683;29;20024;-82
2023/04/06 18:15:33;;;;;;;16.17;12.35;;;;;;;;;;4901103;29;20131;-83
2023/04/06 20:53:05;;;;;;;11.23;8.82;;;;;;;;;;4917186;29;20051;-83
2023/04/06 20:55:30;;;;;;;10.85;8.20;;;;;;;;;;4919253;29;20048;-81
2023/04/06 20:57:56;;;;;;;9.57;7.50;;;;;;;;;;4936217;29;20027;-83
2023/04/06 21:00:21;;;;;;;9.18;7.72;;;;;;;;;;4936037;29;20027;-82
2023/04/06 21:02:47;;;;;;;9.73;7.55;;;;;;;;;;4919320;29;20031;-82
2023/04/06 21:05:12;;;;;;;9.48;7.63;;;;;;;;;;4936350;29;20079;-82
2023/04/06 21:07:38;;;;;;;12.43;8.15;;;;;;;;;;4936080;29;20032;-82
2023/04/06 21:10:05;;;;;;;11.63;8.63;;;;;;;;;;4936154;29;20058;-83
2023/04/06 21:12:30;;;;;;;12.55;9.10;;;;;;;;;;4936029;29;20031;-83
2023/04/06 21:14:56;;;;;;;15.52;10.13;;;;;;;;;;4936135;29;20058;-83
2023/04/06 21:17:21;;;;;;;16.02;10.48;;;;;;;;;;4936282;29;20390;-83
2023/04/06 21:19:47;;;;;;;13.27;9.90;;;;;;;;;;4935976;29;20039;-82
2023/04/06 21:22:12;;;;;;;12.38;9.10;;;;;;;;;;4936333;29;20059;-82
2023/04/06 21:24:38;;;;;;;12.18;8.48;;;;;;;;;;4919042;29;20446;-82
2023/04/06 21:27:03;;;;;;;11.20;8.43;;;;;;;;;;4919167;29;20090;-82
2023/04/06 21:29:31;;;;;;;11.38;8.80;;;;;;;;;;4939357;29;20032;-83
2023/04/06 21:31:56;;;;;;;10.50;8.57;;;;;;;;;;4939977;29;20055;-82
2023/04/06 21:34:22;;;;;;;11.35;8.30;;;;;;;;;;4939901;29;20092;-82
2023/04/06 21:36:47;;;;;;;11.55;8.82;;;;;;;;;;4939614;29;20034;-82
2023/04/06 21:39:12;;;;;;;10.88;8.90;;;;;;;;;;4939512;29;20031;-82
2023/04/06 21:41:39;;;;;;;9.63;8.48;;;;;;;;;;4939772;29;20055;-82
2023/04/06 21:44:05;;;;;;;12.18;9.43;;;;;;;;;;4922549;29;20028;-83
2023/04/06 21:46:31;;;;;;;13.13;9.95;;;;;;;;;;4939455;29;20481;-83
2023/04/06 21:48:57;;;;;;;13.30;10.60;;;;;;;;;;4922464;29;20114;-84
2023/04/06 21:51:23;;;;;;;10.38;8.57;;;;;;;;;;4939546;29;20111;-83
2023/04/06 21:53:48;;;;;;;12.60;9.68;;;;;;;;;;4939305;29;20058;-83
2023/04/06 21:56:23;;;;;;;11.73;9.52;;;;;;;;;;4939230;29;20035;-83
2023/04/06 21:58:49;;;;;;;10.20;8.85;;;;;;;;;;4922041;29;20505;-83
2023/04/06 22:01:16;;;;;;;12.70;9.35;;;;;;;;;;4939514;29;20463;-83
2023/04/06 22:03:42;;;;;;;12.88;9.25;;;;;;;;;;4939036;29;20359;-83
2023/04/06 22:06:08;;;;;;;10.05;8.23;;;;;;;;;;4939161;29;20027;-83
2023/04/06 22:08:33;;;;;;;11.45;8.40;;;;;;;;;;4939279;29;20375;-83
2023/04/06 22:11:00;;;;;;;12.65;9.90;;;;;;;;;;4939495;29;20098;-83
2023/04/06 22:13:26;;;;;;;12.32;9.75;;;;;;;;;;4939094;29;20038;-83
2023/04/06 22:15:52;;;;;;;13.30;9.90;;;;;;;;;;4939153;29;20028;-83
2023/04/06 22:18:17;;;;;;;15.43;10.02;;;;;;;;;;4938773;29;20498;-83
2023/04/06 22:20:43;;;;;;;13.43;10.70;;;;;;;;;;4939084;29;20043;-83
2023/04/06 22:23:09;;;;;;;14.35;11.40;;;;;;;;;;4938768;29;20133;-83
2023/04/06 22:25:34;;;;;;;13.90;10.95;;;;;;;;;;4938829;29;20078;-83
2023/04/06 22:28:00;;;;;;;14.90;11.10;;;;;;;;;;4938901;29;20036;-83
2023/04/06 22:30:25;;;;;;;14.40;10.90;;;;;;;;;;4938513;29;20034;-83
2023/04/06 22:32:51;;;;;;;12.98;10.80;;;;;;;;;;4938994;29;20079;-83
2023/04/06 22:35:16;;;;;;;14.40;10.52;;;;;;;;;;4938738;29;20023;-83
2023/04/06 22:37:42;;;;;;;13.88;10.38;;;;;;;;;;4921501;29;20551;-83
2023/04/06 22:40:09;;;;;;;13.65;10.88;;;;;;;;;;4937844;29;20386;-83
2023/04/06 22:42:35;;;;;;;13.55;9.57;;;;;;;;;;4938653;29;20067;-81
